Time;durP1;ratioP1;P1;durP2;ratioP2;P2;SDS_P1;SDS_P2;PMS_P1;PMS_P2;Temp;Humidity;BMP_temperature;BMP_pressure;BME280_temperature;BME280_humidity;BME280_pressure;Samples;Min_cycle;Max_cycle;Signal;HPM_P1;HPM_P2
2024/04/25 00:00:48;;;;;;;0.63;0.63;;;5.10;99.90;;;;;;4777828;29;20021;-79
2024/04/25 00:03:13;;;;;;;0.47;0.47;;;4.90;99.90;;;;;;4796685;29;20036;-78
2024/04/25 00:05:46;;;;;;;0.55;0.55;;;4.90;99.90;;;;;;4792792;29;20123;-77
2024/04/25 00:08:11;;;;;;;0.60;0.60;;;4.90;99.90;;;;;;4796189;29;20017;-80
2024/04/25 00:10:39;;;;;;;0.60;0.60;;;4.90;99.90;;;;;;4774157;29;20022;-77
2024/04/25 00:13:08;;;;;;;0.60;0.60;;;4.90;99.90;;;;;;4800190;29;20053;-79
2024/04/25 00:15:34;;;;;;;0.65;0.65;;;5.80;99.90;;;;;;4799236;29;20583;-77
2024/04/25 00:18:01;;;;;;;0.60;0.60;;;5.00;99.90;;;;;;4777682;29;20492;-80
2024/04/25 00:20:26;;;;;;;0.50;0.50;;;4.90;99.90;;;;;;4777647;29;20021;-78
2024/04/25 00:22:52;;;;;;;0.60;0.60;;;4.90;99.90;;;;;;4802927;29;20354;-78
2024/04/25 00:25:38;;;;;;;0.50;0.50;;;4.90;99.90;;;;;;4751172;29;20028;-79
2024/04/25 00:28:04;;;;;;;0.50;0.50;;;5.20;99.90;;;;;;4792058;29;20021;-79
2024/04/25 00:30:31;;;;;;;0.60;0.60;;;4.90;99.90;;;;;;4749883;29;20069;-78
2024/04/25 00:32:58;;;;;;;0.50;0.50;;;6.10;99.90;;;;;;4776099;29;20265;-77
2024/04/25 00:35:24;;;;;;;0.70;0.70;;;5.00;99.90;;;;;;4800056;29;20025;-78
2024/04/25 00:37:50;;;;;;;0.50;0.50;;;4.70;99.90;;;;;;4793912;29;20121;-77
2024/04/25 00:40:16;;;;;;;0.60;0.60;;;4.70;99.90;;;;;;4800470;29;20029;-75
2024/04/25 00:42:42;;;;;;;0.60;0.60;;;5.30;99.90;;;;;;4779106;29;20022;-76
2024/04/25 00:45:09;;;;;;;0.70;0.70;;;4.70;99.90;;;;;;4780063;29;20027;-76
2024/04/25 00:47:55;;;;;;;0.70;0.70;;;4.70;99.90;;;;;;4796942;29;20028;-75
2024/04/25 00:50:21;;;;;;;;;;;4.60;99.90;;;;;;4772877;29;20033;-75
2024/04/25 00:52:47;;;;;;;0.50;0.50;;;4.60;99.90;;;;;;4800571;29;19942;-78
2024/04/25 00:55:13;;;;;;;0.60;0.60;;;4.60;99.90;;;;;;4801833;29;20056;-78
2024/04/25 00:57:41;;;;;;;0.60;0.60;;;4.60;99.90;;;;;;4793633;29;20031;-76
2024/04/25 01:00:08;;;;;;;0.50;0.50;;;4.60;99.90;;;;;;4805639;29;20033;-76
2024/04/25 01:02:34;;;;;;;0.57;0.57;;;4.60;99.90;;;;;;4808248;29;20021;-75
2024/04/25 01:05:05;;;;;;;0.50;0.50;;;4.60;99.90;;;;;;4780165;29;20404;-75
2024/04/25 01:07:31;;;;;;;0.70;0.70;;;4.60;99.90;;;;;;4790532;29;20048;-76
2024/04/25 01:09:57;;;;;;;0.68;0.68;;;4.60;99.90;;;;;;4795558;29;20355;-75
2024/04/25 01:12:27;;;;;;;0.60;0.60;;;5.90;99.90;;;;;;4800214;29;20493;-75
2024/04/25 01:14:53;;;;;;;2.30;2.13;;;4.70;99.90;;;;;;4807439;29;20017;-74
2024/04/25 01:17:18;;;;;;;0.57;0.57;;;6.40;99.90;;;;;;4819186;29;20036;-75
2024/04/25 01:19:45;;;;;;;0.55;0.55;;;4.70;99.90;;;;;;4804410;29;20373;-73
2024/04/25 01:22:12;;;;;;;0.60;0.60;;;4.70;99.90;;;;;;4806074;29;20021;-75
2024/04/25 01:24:38;;;;;;;0.60;0.60;;;4.60;99.90;;;;;;4796755;29;20526;-76
2024/04/25 01:27:05;;;;;;;0.57;0.57;;;4.60;99.90;;;;;;4791017;29;20079;-74
2024/04/25 01:29:32;;;;;;;0.60;0.60;;;4.60;99.90;;;;;;4800039;29;20381;-76
2024/04/25 01:31:59;;;;;;;0.60;0.60;;;4.60;99.90;;;;;;4798395;29;20101;-76
2024/04/25 01:34:25;;;;;;;0.55;0.55;;;4.50;99.90;;;;;;4797577;29;20109;-75
2024/04/25 01:36:52;;;;;;;0.85;0.85;;;4.50;99.90;;;;;;4800745;29;20053;-75
2024/04/25 01:39:22;;;;;;;0.60;0.60;;;4.50;99.90;;;;;;4797959;29;20021;-75
2024/04/25 01:41:47;;;;;;;0.65;0.65;;;4.40;99.90;;;;;;4798036;29;20017;-73
2024/04/25 01:44:13;;;;;;;0.50;0.50;;;4.40;99.90;;;;;;4802363;29;20028;-73
2024/04/25 01:46:39;;;;;;;0.50;0.50;;;4.40;99.90;;;;;;4794550;29;20049;-75
2024/04/25 01:49:05;;;;;;;;;;;4.40;99.90;;;;;;4789878;29;20765;-75
2024/04/25 01:51:31;;;;;;;0.60;0.60;;;4.40;99.90;;;;;;4808501;29;20118;-76
2024/04/25 01:53:57;;;;;;;;;;;4.40;99.90;;;;;;4802012;29;20061;-79
2024/04/25 01:56:23;;;;;;;0.60;0.60;;;4.30;99.90;;;;;;4804083;29;19935;-76
2024/04/25 01:58:52;;;;;;;0.60;0.60;;;5.10;99.90;;;;;;4790864;29;20437;-76
2024/04/25 02:01:19;;;;;;;0.60;0.60;;;4.40;99.90;;;;;;4798293;29;20033;-76
2024/04/25 02:03:45;;;;;;;0.60;0.60;;;4.40;99.90;;;;;;4767345;29;20040;-74
2024/04/25 02:06:12;;;;;;;0.50;0.50;;;4.40;99.90;;;;;;4801649;29;20017;-75
2024/04/25 02:08:38;;;;;;;0.55;0.55;;;4.40;99.90;;;;;;4808870;29;20030;-76
2024/04/25 02:11:23;;;;;;;0.60;0.60;;;4.50;99.90;;;;;;4779978;29;20021;-75
2024/04/25 02:13:50;;;;;;;0.45;0.45;;;4.50;99.90;;;;;;4772527;30;20033;-74
2024/04/25 02:16:16;;;;;;;0.57;0.57;;;4.50;99.90;;;;;;4798689;29;20022;-74
2024/04/25 02:18:42;;;;;;;0.60;0.60;;;4.50;99.90;;;;;;4777115;29;20041;-73
2024/04/25 02:26:37;;;;;;;0.60;0.60;;;4.60;99.90;;;;;;4786670;29;20036;-74
2024/04/25 02:29:03;;;;;;;0.65;0.65;;;4.60;99.90;;;;;;4765707;30;20021;-76
2024/04/25 02:31:31;;;;;;;0.75;0.75;;;4.90;99.90;;;;;;4803500;29;20574;-74
2024/04/25 02:33:57;;;;;;;0.80;0.80;;;4.60;99.90;;;;;;4747941;29;20029;-74
2024/04/25 02:36:23;;;;;;;;;;;4.80;99.90;;;;;;4802065;29;20102;-74
2024/04/25 02:39:09;;;;;;;0.60;0.60;;;4.70;99.90;;;;;;4797034;29;20014;-75
2024/04/25 02:41:35;;;;;;;0.60;0.60;;;4.70;99.90;;;;;;4802922;29;20021;-74
2024/04/25 02:44:03;;;;;;;0.55;0.55;;;4.70;99.90;;;;;;4801990;29;20021;-73
2024/04/25 02:46:29;;;;;;;0.68;0.68;;;4.70;99.90;;;;;;4807973;29;20057;-74
2024/04/25 02:48:54;;;;;;;0.60;0.60;;;4.70;99.90;;;;;;4799901;29;20021;-74
2024/04/25 02:51:20;;;;;;;0.60;0.60;;;5.30;99.90;;;;;;4790933;29;20655;-74
2024/04/25 02:53:46;;;;;;;0.60;0.60;;;4.60;99.90;;;;;;4766248;29;20021;-73
2024/04/25 02:56:12;;;;;;;0.65;0.65;;;4.60;99.90;;;;;;4795065;29;20032;-74
2024/04/25 02:58:38;;;;;;;0.60;0.60;;;5.00;99.90;;;;;;4797451;29;20030;-74
2024/04/25 03:01:04;;;;;;;0.70;0.70;;;4.60;99.90;;;;;;4797706;29;20030;-74
2024/04/25 03:03:30;;;;;;;0.40;0.40;;;4.60;99.90;;;;;;4778964;29;20496;-76
2024/04/25 03:06:15;;;;;;;0.60;0.60;;;4.50;99.90;;;;;;4818457;29;20477;-74
2024/04/25 03:08:41;;;;;;;0.60;0.60;;;4.40;99.90;;;;;;4788906;29;20102;-74
2024/04/25 03:11:07;;;;;;;0.60;0.60;;;4.40;99.90;;;;;;4787870;29;20453;-71
2024/04/25 03:13:54;;;;;;;0.60;0.60;;;4.40;99.90;;;;;;4794387;29;20355;-74
2024/04/25 03:16:19;;;;;;;;;;;5.30;99.90;;;;;;4800323;29;20100;-74
2024/04/25 03:18:45;;;;;;;0.47;0.47;;;4.30;99.90;;;;;;4803916;29;20743;-74
2024/04/25 03:21:12;;;;;;;0.60;0.60;;;4.20;99.90;;;;;;4799591;29;20036;-74
2024/04/25 03:23:40;;;;;;;0.50;0.50;;;4.20;99.90;;;;;;4798774;29;20032;-74
2024/04/25 03:26:06;;;;;;;0.70;0.70;;;5.60;99.90;;;;;;4809238;29;20020;-75
2024/04/25 03:28:52;;;;;;;0.57;0.57;;;4.10;99.90;;;;;;4767675;29;20541;-73
2024/04/25 03:31:18;;;;;;;0.60;0.60;;;4.00;99.90;;;;;;4788312;29;20033;-74
2024/04/25 03:33:43;;;;;;;0.68;0.68;;;4.00;99.90;;;;;;4801688;29;20385;-74
2024/04/25 03:36:09;;;;;;;0.60;0.60;;;4.00;99.90;;;;;;4790056;29;20032;-73
2024/04/25 03:38:35;;;;;;;0.70;0.70;;;3.90;99.90;;;;;;4797978;29;20035;-73
2024/04/25 03:41:05;;;;;;;0.63;0.63;;;4.10;99.90;;;;;;4800499;29;20025;-75
2024/04/25 03:43:31;;;;;;;1.50;1.45;;;3.90;99.90;;;;;;4800351;29;20029;-73
2024/04/25 03:46:14;;;;;;;0.50;0.50;;;3.80;99.90;;;;;;4792727;29;20025;-75
2024/04/25 03:48:41;;;;;;;0.52;0.52;;;3.80;99.90;;;;;;4796240;29;20017;-74
2024/04/25 03:51:26;;;;;;;0.60;0.60;;;3.90;99.90;;;;;;4812848;29;20369;-76
2024/04/25 03:53:52;;;;;;;0.60;0.60;;;3.90;99.90;;;;;;4799961;29;20021;-74
2024/04/25 03:56:19;;;;;;;0.50;0.50;;;3.90;99.90;;;;;;4800166;29;20111;-75
2024/04/25 03:58:47;;;;;;;0.63;0.63;;;3.90;99.90;;;;;;4805298;29;20029;-74
2024/04/25 04:01:13;;;;;;;1.10;1.00;;;4.00;99.90;;;;;;4801566;29;20031;-74
2024/04/25 04:03:39;;;;;;;0.68;0.68;;;4.00;99.90;;;;;;4827267;29;20021;-74
2024/04/25 04:06:25;;;;;;;0.47;0.47;;;4.10;99.90;;;;;;4803698;29;20021;-75
2024/04/25 04:08:51;;;;;;;0.70;0.70;;;4.10;99.90;;;;;;4800969;29;20319;-74
2024/04/25 04:11:38;;;;;;;2.45;2.35;;;4.20;99.90;;;;;;4760586;29;20071;-74
2024/04/25 04:14:06;;;;;;;0.50;0.50;;;4.10;99.90;;;;;;4794856;29;20021;-76
2024/04/25 04:16:33;;;;;;;0.50;0.50;;;4.10;99.90;;;;;;4802540;29;20129;-76
2024/04/25 04:19:19;;;;;;;0.60;0.60;;;4.00;99.90;;;;;;4781256;29;20465;-76
2024/04/25 04:21:46;;;;;;;0.50;0.50;;;4.10;99.90;;;;;;4803788;29;20025;-76
2024/04/25 04:24:14;;;;;;;0.60;0.60;;;3.90;99.90;;;;;;4794668;29;20394;-75
2024/04/25 04:26:40;;;;;;;0.50;0.50;;;3.80;99.90;;;;;;4797591;29;20021;-76
2024/04/25 04:29:05;;;;;;;0.60;0.60;;;5.20;99.90;;;;;;4797874;29;20025;-77
2024/04/25 04:31:31;;;;;;;0.57;0.57;;;4.10;99.90;;;;;;4799194;29;20497;-77
2024/04/25 04:33:57;;;;;;;1.02;1.02;;;3.90;99.90;;;;;;4803396;29;20021;-76
2024/04/25 04:36:23;;;;;;;0.60;0.60;;;3.90;99.90;;;;;;4795952;29;21061;-77
2024/04/25 04:38:49;;;;;;;0.50;0.50;;;3.90;99.90;;;;;;4804620;29;20021;-75
2024/04/25 04:41:15;;;;;;;0.60;0.60;;;4.00;99.90;;;;;;4794584;29;20072;-76
2024/04/25 04:43:41;;;;;;;0.60;0.60;;;3.90;99.90;;;;;;4799625;29;20021;-77
2024/04/25 04:46:08;;;;;;;0.60;0.60;;;3.90;99.90;;;;;;4777976;29;20109;-76
2024/04/25 04:48:34;;;;;;;0.50;0.50;;;3.90;99.90;;;;;;4765268;29;20031;-75
2024/04/25 04:51:00;;;;;;;0.70;0.70;;;4.00;99.90;;;;;;4775328;29;21572;-76
2024/04/25 04:53:26;;;;;;;0.60;0.60;;;3.90;99.90;;;;;;4781207;29;20013;-75
2024/04/25 04:55:53;;;;;;;0.63;0.63;;;4.00;99.90;;;;;;4777745;29;20040;-76
2024/04/25 04:58:19;;;;;;;0.60;0.60;;;4.00;99.90;;;;;;4780579;29;20013;-77
2024/04/25 05:00:45;;;;;;;0.60;0.60;;;4.00;99.90;;;;;;4765031;29;20477;-76
2024/04/25 05:03:14;;;;;;;0.50;0.50;;;4.10;99.90;;;;;;4777289;29;20028;-76
2024/04/25 05:05:39;;;;;;;0.60;0.60;;;4.10;99.90;;;;;;4780142;29;20498;-76
2024/04/25 05:08:05;;;;;;;0.60;0.60;;;4.40;99.90;;;;;;4786067;29;20111;-76
2024/04/25 05:10:31;;;;;;;0.60;0.60;;;4.20;99.90;;;;;;4789862;29;20717;-75
2024/04/25 05:12:57;;;;;;;0.70;0.70;;;4.70;99.90;;;;;;4781106;29;20026;-75
2024/04/25 05:15:23;;;;;;;0.50;0.50;;;4.10;99.90;;;;;;4781214;29;20892;-73
2024/04/25 05:17:49;;;;;;;0.70;0.70;;;4.30;99.90;;;;;;4777299;29;20119;-75
2024/04/25 05:20:15;;;;;;;0.60;0.60;;;4.20;99.90;;;;;;4781465;29;20022;-77
2024/04/25 05:22:41;;;;;;;0.60;0.60;;;4.20;99.90;;;;;;4777982;29;21754;-75
2024/04/25 05:25:07;;;;;;;0.85;0.85;;;4.20;99.90;;;;;;4783006;29;20026;-75
2024/04/25 05:27:36;;;;;;;0.60;0.60;;;4.30;99.90;;;;;;4780536;29;20026;-76
2024/04/25 05:30:05;;;;;;;0.60;0.60;;;4.30;99.90;;;;;;4757631;29;20013;-76
2024/04/25 05:32:32;;;;;;;0.60;0.60;;;4.40;99.90;;;;;;4785412;29;20022;-77
2024/04/25 05:34:58;;;;;;;0.60;0.60;;;4.40;99.90;;;;;;4781606;29;20475;-76
2024/04/25 05:37:26;;;;;;;0.52;0.52;;;4.40;99.90;;;;;;4759308;29;20450;-76
2024/04/25 05:39:53;;;;;;;0.60;0.60;;;4.50;99.90;;;;;;4781336;29;20017;-76
2024/04/25 05:42:19;;;;;;;0.60;0.60;;;4.50;99.90;;;;;;4779630;29;20025;-77
2024/04/25 05:44:47;;;;;;;0.50;0.50;;;4.60;99.90;;;;;;4760399;29;20024;-76
2024/04/25 05:47:20;;;;;;;0.70;0.70;;;4.70;99.90;;;;;;4781855;29;20021;-76
2024/04/25 05:49:46;;;;;;;0.50;0.50;;;4.70;99.90;;;;;;4764433;29;20018;-77
2024/04/25 05:52:19;;;;;;;0.80;0.80;;;4.80;99.90;;;;;;4756075;29;20419;-77
2024/04/25 05:54:45;;;;;;;0.60;0.60;;;4.90;99.90;;;;;;4782177;29;20071;-75
2024/04/25 05:57:11;;;;;;;0.50;0.50;;;4.90;99.90;;;;;;4792839;29;20013;-75
2024/04/25 05:59:37;;;;;;;0.60;0.60;;;5.00;99.90;;;;;;4760343;29;20024;-77
2024/04/25 06:02:03;;;;;;;0.80;0.80;;;5.40;99.90;;;;;;4785894;29;20669;-77
2024/04/25 06:04:32;;;;;;;0.50;0.50;;;5.10;99.90;;;;;;4787979;29;20013;-77
2024/04/25 06:06:58;;;;;;;0.60;0.60;;;5.10;99.90;;;;;;4762827;29;20054;-77
2024/04/25 06:09:24;;;;;;;;;;;5.90;99.90;;;;;;4785978;29;20367;-76
2024/04/25 06:11:50;;;;;;;0.60;0.60;;;5.20;99.90;;;;;;4784018;29;19963;-77
2024/04/25 06:14:16;;;;;;;;;;;5.40;99.90;;;;;;4788276;29;20024;-76
2024/04/25 06:16:42;;;;;;;0.60;0.60;;;5.40;99.90;;;;;;4756120;29;19947;-76
2024/04/25 06:19:09;;;;;;;0.70;0.70;;;5.50;99.90;;;;;;4785740;29;20469;-77
2024/04/25 06:21:35;;;;;;;0.75;0.75;;;5.60;99.90;;;;;;4784292;29;20592;-76
2024/04/25 06:24:02;;;;;;;0.60;0.60;;;5.60;99.90;;;;;;4782789;29;20345;-76
2024/04/25 06:26:28;;;;;;;0.43;0.43;;;5.50;99.90;;;;;;4756396;29;20014;-76
2024/04/25 06:28:54;;;;;;;0.60;0.60;;;5.80;99.90;;;;;;4751141;29;20022;-77
2024/04/25 06:31:23;;;;;;;;;;;5.70;99.90;;;;;;4778052;29;20013;-75
2024/04/25 06:33:51;;;;;;;1.23;0.90;;;5.90;99.90;;;;;;4774769;29;20012;-76
2024/04/25 06:36:18;;;;;;;0.60;0.60;;;5.90;99.90;;;;;;4778785;29;20014;-76
2024/04/25 06:38:44;;;;;;;0.50;0.50;;;5.90;99.90;;;;;;4752521;29;20021;-77
2024/04/25 06:41:10;;;;;;;0.45;0.45;;;6.00;99.90;;;;;;4776739;29;20028;-76
2024/04/25 06:43:36;;;;;;;0.60;0.60;;;5.70;99.90;;;;;;4779872;29;20014;-78
2024/04/25 06:46:02;;;;;;;1.55;1.50;;;5.80;99.90;;;;;;4754707;29;20024;-78
2024/04/25 06:48:28;;;;;;;0.57;0.57;;;5.80;99.90;;;;;;4754929;29;20354;-76
2024/04/25 06:50:54;;;;;;;0.50;0.50;;;6.10;99.90;;;;;;4777809;29;20067;-77
2024/04/25 06:53:19;;;;;;;0.50;0.50;;;5.80;99.90;;;;;;4777021;29;20032;-76
2024/04/25 06:55:45;;;;;;;0.50;0.50;;;6.00;99.90;;;;;;4779660;29;20445;-77
2024/04/25 06:58:11;;;;;;;0.50;0.50;;;6.20;99.90;;;;;;4756018;29;20465;-76
2024/04/25 07:00:38;;;;;;;0.40;0.40;;;6.10;99.90;;;;;;4783223;29;20377;-77
2024/04/25 07:03:04;;;;;;;0.93;0.93;;;6.20;99.90;;;;;;4790605;29;20021;-76
2024/04/25 07:05:31;;;;;;;0.60;0.60;;;6.20;99.90;;;;;;4784364;29;20021;-74
2024/04/25 07:07:57;;;;;;;0.40;0.40;;;6.30;99.90;;;;;;4785023;29;20080;-75
2024/04/25 07:10:23;;;;;;;0.60;0.60;;;6.40;99.90;;;;;;4787450;29;20035;-77
2024/04/25 07:12:49;;;;;;;0.40;0.40;;;6.40;99.90;;;;;;4765636;29;20029;-75
2024/04/25 07:15:15;;;;;;;0.30;0.30;;;6.50;99.90;;;;;;4765506;29;20021;-76
2024/04/25 07:17:42;;;;;;;0.45;0.45;;;6.60;99.90;;;;;;4766707;29;20026;-79
2024/04/25 07:20:08;;;;;;;0.47;0.47;;;6.70;99.90;;;;;;4784360;29;20097;-75
2024/04/25 07:22:34;;;;;;;0.50;0.50;;;6.90;99.90;;;;;;4772791;29;20013;-78
2024/04/25 07:25:01;;;;;;;0.50;0.50;;;6.90;99.90;;;;;;4784785;29;20369;-75
2024/04/25 07:27:26;;;;;;;0.40;0.40;;;7.00;99.90;;;;;;4784078;29;20028;-75
2024/04/25 07:29:52;;;;;;;0.40;0.40;;;7.40;99.90;;;;;;4785816;29;20034;-76
2024/04/25 07:32:18;;;;;;;0.50;0.50;;;7.40;99.90;;;;;;4773812;30;20029;-75
2024/04/25 07:34:44;;;;;;;0.60;0.60;;;7.40;99.90;;;;;;4776964;29;20389;-75
2024/04/25 07:37:10;;;;;;;0.63;0.63;;;7.50;99.90;;;;;;4783812;29;20022;-76
2024/04/25 07:39:36;;;;;;;0.50;0.50;;;7.60;99.90;;;;;;4774074;29;20033;-76
2024/04/25 07:42:02;;;;;;;0.40;0.40;;;7.60;99.90;;;;;;4785314;29;20114;-75
2024/04/25 07:44:29;;;;;;;0.50;0.50;;;7.60;99.90;;;;;;4796960;29;20029;-75
2024/04/25 07:46:54;;;;;;;0.38;0.38;;;7.60;99.90;;;;;;4786853;29;20574;-75
2024/04/25 07:49:20;;;;;;;0.50;0.50;;;7.70;99.90;;;;;;4787441;29;20020;-76
2024/04/25 07:51:46;;;;;;;0.65;0.65;;;7.70;99.90;;;;;;4786458;29;20031;-75
2024/04/25 07:54:13;;;;;;;0.32;0.32;;;7.80;99.90;;;;;;4785478;29;20029;-76
2024/04/25 07:56:38;;;;;;;;;;;7.90;99.90;;;;;;4790112;29;20375;-76
2024/04/25 07:59:05;;;;;;;0.50;0.50;;;8.10;99.90;;;;;;4788668;29;19935;-75
2024/04/25 08:01:31;;;;;;;0.47;0.47;;;8.40;99.90;;;;;;4771502;29;20018;-75
2024/04/25 08:03:58;;;;;;;0.45;0.45;;;8.50;99.90;;;;;;4791809;29;20033;-76
2024/04/25 08:06:24;;;;;;;0.30;0.30;;;8.20;99.90;;;;;;4795998;29;20093;-78
2024/04/25 08:08:49;;;;;;;0.50;0.50;;;8.30;99.90;;;;;;4787640;29;20617;-77
2024/04/25 08:11:16;;;;;;;0.50;0.50;;;8.20;99.90;;;;;;4789090;29;20034;-78
2024/04/25 08:13:42;;;;;;;0.40;0.40;;;8.20;99.90;;;;;;4768670;29;20018;-77
2024/04/25 08:16:08;;;;;;;0.45;0.45;;;8.20;99.90;;;;;;4791676;29;20184;-79
2024/04/25 08:18:34;;;;;;;0.50;0.50;;;8.30;99.90;;;;;;4765091;29;20363;-77
2024/04/25 08:21:00;;;;;;;0.40;0.40;;;8.20;99.90;;;;;;4790269;29;20021;-76
2024/04/25 08:23:27;;;;;;;;;;;8.20;99.90;;;;;;4769097;29;20021;-78
2024/04/25 08:25:53;;;;;;;0.50;0.50;;;8.40;99.90;;;;;;4785549;29;19936;-76
2024/04/25 08:28:19;;;;;;;0.50;0.50;;;8.40;99.90;;;;;;4765617;29;20028;-77
2024/04/25 08:30:45;;;;;;;0.50;0.50;;;8.50;99.90;;;;;;4750188;29;20014;-77
2024/04/25 08:33:12;;;;;;;0.40;0.40;;;8.60;99.90;;;;;;4781153;29;20312;-77
2024/04/25 08:35:39;;;;;;;0.70;0.70;;;8.90;99.90;;;;;;4771692;29;20021;-79
2024/04/25 08:38:05;;;;;;;0.30;0.30;;;8.90;99.90;;;;;;4805220;29;20096;-76
2024/04/25 08:40:33;;;;;;;0.40;0.40;;;9.10;99.90;;;;;;4792537;29;20054;-76
2024/04/25 08:43:01;;;;;;;0.75;0.75;;;9.10;99.90;;;;;;4785703;29;20017;-76
2024/04/25 08:45:28;;;;;;;0.57;0.57;;;9.30;99.90;;;;;;4786618;29;20026;-79
2024/04/25 08:47:56;;;;;;;0.50;0.50;;;9.00;99.90;;;;;;4783983;29;20085;-80
2024/04/25 08:50:24;;;;;;;0.65;0.65;;;9.00;99.90;;;;;;4781119;29;20023;-79
2024/04/25 08:52:52;;;;;;;0.40;0.40;;;9.00;99.90;;;;;;4765020;29;20014;-79
2024/04/25 08:55:21;;;;;;;0.40;0.40;;;9.10;99.90;;;;;;4767835;29;20022;-76
2024/04/25 08:57:47;;;;;;;0.30;0.30;;;9.10;99.90;;;;;;4784713;29;20044;-78
2024/04/25 09:00:16;;;;;;;0.50;0.50;;;9.10;99.90;;;;;;4783964;29;20143;-78
2024/04/25 09:02:45;;;;;;;0.75;0.75;;;9.20;99.90;;;;;;4781347;29;20913;-78
2024/04/25 09:05:12;;;;;;;0.40;0.40;;;9.10;99.90;;;;;;4792253;29;20475;-81
2024/04/25 09:07:44;;;;;;;0.30;0.30;;;9.20;99.90;;;;;;4817245;29;20020;-78
2024/04/25 09:10:11;;;;;;;0.28;0.28;;;9.20;99.90;;;;;;4794153;29;20017;-78
2024/04/25 09:12:36;;;;;;;0.40;0.40;;;9.50;99.90;;;;;;4762216;30;20036;-79
2024/04/25 09:15:02;;;;;;;0.40;0.40;;;9.30;99.90;;;;;;4781556;29;20041;-76
2024/04/25 09:17:28;;;;;;;0.25;0.25;;;9.40;99.90;;;;;;4779766;29;20021;-76
2024/04/25 09:19:57;;;;;;;0.40;0.40;;;9.40;99.90;;;;;;4782917;29;20144;-76
2024/04/25 09:22:22;;;;;;;0.30;0.30;;;9.40;99.90;;;;;;4781841;29;20103;-76
2024/04/25 09:24:50;;;;;;;0.38;0.38;;;9.40;99.90;;;;;;4784182;29;20057;-75
2024/04/25 09:27:19;;;;;;;0.40;0.40;;;9.40;99.90;;;;;;4782600;29;20021;-76
2024/04/25 09:29:45;;;;;;;0.30;0.30;;;9.50;99.90;;;;;;4789190;29;20013;-75
2024/04/25 09:32:18;;;;;;;0.38;0.38;;;9.60;99.90;;;;;;4787283;29;20413;-75
2024/04/25 09:34:44;;;;;;;1.08;0.98;;;9.80;99.90;;;;;;4761494;29;20061;-75
2024/04/25 09:37:10;;;;;;;;;;;9.80;99.90;;;;;;4791126;29;20021;-76
2024/04/25 09:39:36;;;;;;;0.38;0.38;;;10.00;99.90;;;;;;4788014;29;19946;-75
2024/04/25 09:42:03;;;;;;;0.40;0.40;;;10.20;99.90;;;;;;4785487;29;20126;-76
2024/04/25 09:44:36;;;;;;;0.60;0.60;;;10.40;99.90;;;;;;4785824;29;20097;-76
2024/04/25 09:47:05;;;;;;;0.45;0.45;;;10.50;99.90;;;;;;4775341;29;20025;-76
2024/04/25 09:49:58;;;;;;;0.30;0.30;;;10.40;99.90;;;;;;4782736;29;20023;-75
2024/04/25 09:52:46;;;;;;;0.40;0.40;;;10.30;99.90;;;;;;4787887;29;20101;-75
2024/04/25 09:55:21;;;;;;;0.40;0.40;;;10.20;99.90;;;;;;4776591;29;20021;-75
2024/04/25 09:57:50;;;;;;;0.40;0.40;;;10.10;99.90;;;;;;4788231;29;20074;-75
2024/04/25 10:00:17;;;;;;;0.40;0.40;;;9.80;99.90;;;;;;4789918;29;20013;-75
2024/04/25 10:02:46;;;;;;;0.40;0.40;;;9.50;99.90;;;;;;4782328;29;20021;-75
2024/04/25 10:05:13;;;;;;;1.73;1.63;;;9.30;99.90;;;;;;4791582;29;20021;-76
2024/04/25 10:07:41;;;;;;;0.40;0.40;;;9.20;99.90;;;;;;4782906;29;20132;-75
2024/04/25 10:10:08;;;;;;;0.40;0.40;;;9.10;99.90;;;;;;4789807;29;20037;-77
2024/04/25 10:12:50;;;;;;;0.55;0.55;;;9.20;99.90;;;;;;4765435;29;20346;-74
2024/04/25 10:15:26;;;;;;;1.38;1.17;;;9.40;99.90;;;;;;4784915;29;20014;-74
2024/04/25 10:17:52;;;;;;;0.40;0.40;;;9.50;99.90;;;;;;4768109;29;20030;-74
2024/04/25 10:20:19;;;;;;;0.40;0.40;;;9.70;99.90;;;;;;4747579;29;20530;-75
2024/04/25 10:22:57;;;;;;;0.40;0.40;;;10.10;99.90;;;;;;4767869;29;20020;-74
2024/04/25 10:25:24;;;;;;;0.40;0.40;;;10.40;99.90;;;;;;4767866;29;20018;-76
2024/04/25 10:28:01;;;;;;;0.40;0.40;;;10.40;99.90;;;;;;4770233;29;20017;-74
2024/04/25 10:30:27;;;;;;;;;;;10.30;99.90;;;;;;4785516;29;20046;-73
2024/04/25 10:32:56;;;;;;;0.40;0.40;;;10.30;99.90;;;;;;4778549;29;19943;-75
2024/04/25 10:35:22;;;;;;;0.40;0.40;;;10.60;99.90;;;;;;4782876;29;20024;-74
2024/04/25 10:37:50;;;;;;;0.40;0.40;;;11.00;99.90;;;;;;4761767;29;20013;-74
2024/04/25 10:40:16;;;;;;;0.40;0.40;;;11.70;99.90;;;;;;4751693;29;20481;-74
2024/04/25 10:42:44;;;;;;;0.40;0.40;;;11.80;99.90;;;;;;4783472;29;20160;-75
2024/04/25 10:45:10;;;;;;;0.50;0.50;;;11.70;99.90;;;;;;4791284;29;20037;-75
2024/04/25 10:47:35;;;;;;;0.40;0.40;;;11.80;99.90;;;;;;4785093;29;20014;-75
2024/04/25 10:50:02;;;;;;;0.30;0.30;;;11.80;99.90;;;;;;4784479;29;20032;-76
2024/04/25 10:52:29;;;;;;;0.40;0.40;;;11.70;99.90;;;;;;4766773;29;20109;-75
2024/04/25 10:54:56;;;;;;;0.35;0.35;;;11.70;99.90;;;;;;4791370;29;20021;-75
2024/04/25 10:57:26;;;;;;;0.40;0.40;;;11.50;99.90;;;;;;4756573;29;20020;-74
2024/04/25 10:59:56;;;;;;;0.50;0.50;;;11.40;99.90;;;;;;4760991;29;20028;-76
2024/04/25 11:02:22;;;;;;;0.30;0.30;;;11.50;99.90;;;;;;4784873;29;20013;-75
2024/04/25 11:04:49;;;;;;;0.38;0.38;;;11.90;99.90;;;;;;4781563;29;20075;-74
2024/04/25 11:07:17;;;;;;;0.40;0.40;;;11.80;99.90;;;;;;4786291;29;20389;-76
2024/04/25 11:09:42;;;;;;;0.35;0.35;;;11.60;99.90;;;;;;4768199;29;20032;-76
2024/04/25 11:12:08;;;;;;;0.30;0.30;;;11.40;99.90;;;;;;4797614;29;20016;-75
2024/04/25 11:14:34;;;;;;;0.30;0.30;;;11.30;99.90;;;;;;4787410;29;20104;-75
2024/04/25 11:17:00;;;;;;;;;;;11.20;99.90;;;;;;4761393;30;20746;-76
2024/04/25 11:19:29;;;;;;;0.45;0.45;;;11.10;99.90;;;;;;4757347;29;19935;-76
2024/04/25 11:21:56;;;;;;;0.30;0.30;;;11.30;99.90;;;;;;4786962;29;20014;-75
2024/04/25 11:24:23;;;;;;;0.38;0.38;;;11.60;99.90;;;;;;4789330;29;20367;-76
2024/04/25 11:26:50;;;;;;;0.30;0.30;;;12.30;99.90;;;;;;4799848;29;20084;-75
2024/04/25 11:29:17;;;;;;;0.30;0.30;;;12.20;99.90;;;;;;4785093;29;20029;-75
2024/04/25 11:31:43;;;;;;;0.50;0.50;;;12.10;99.90;;;;;;4755480;29;20013;-76
2024/04/25 11:34:27;;;;;;;0.30;0.30;;;12.00;99.90;;;;;;4776025;29;20024;-79
2024/04/25 11:37:00;;;;;;;0.40;0.40;;;11.80;99.90;;;;;;4781582;29;20074;-78
2024/04/25 11:39:30;;;;;;;0.20;0.20;;;11.70;99.90;;;;;;4788376;29;20100;-79
2024/04/25 11:42:02;;;;;;;0.32;0.32;;;11.60;99.90;;;;;;4763410;29;20024;-80
2024/04/25 11:44:29;;;;;;;0.30;0.30;;;11.20;99.90;;;;;;4785251;29;20360;-80
2024/04/25 11:46:56;;;;;;;0.35;0.35;;;10.90;99.90;;;;;;4783906;29;20101;-78
2024/04/25 11:49:21;;;;;;;0.40;0.40;;;10.70;99.90;;;;;;4764351;29;20040;-78
2024/04/25 11:51:49;;;;;;;0.30;0.30;;;10.40;99.90;;;;;;4783906;29;20922;-77
2024/04/25 11:54:16;;;;;;;0.40;0.40;;;10.20;99.90;;;;;;4777903;29;20029;-77
2024/04/25 11:56:42;;;;;;;0.30;0.30;;;10.00;99.90;;;;;;4779547;29;20014;-78
2024/04/25 11:59:08;;;;;;;0.40;0.40;;;9.90;99.90;;;;;;4758147;29;20144;-77
2024/04/25 12:01:34;;;;;;;0.40;0.40;;;9.50;99.90;;;;;;4781078;29;20499;-77
2024/04/25 12:04:00;;;;;;;0.45;0.45;;;9.30;99.90;;;;;;4781431;29;20101;-77
2024/04/25 12:06:27;;;;;;;0.32;0.32;;;9.10;99.90;;;;;;4741928;30;20013;-76
2024/04/25 12:08:52;;;;;;;;;;;8.80;99.90;;;;;;4772535;29;20072;-77
2024/04/25 12:11:18;;;;;;;0.40;0.40;;;8.70;99.90;;;;;;4781240;29;19943;-76
2024/04/25 12:13:45;;;;;;;0.40;0.40;;;8.50;99.90;;;;;;4778043;29;20014;-76
2024/04/25 12:16:12;;;;;;;0.50;0.50;;;8.30;99.90;;;;;;4790498;29;20039;-77
2024/04/25 12:18:38;;;;;;;0.52;0.52;;;8.20;99.90;;;;;;4783492;29;20102;-78
2024/04/25 12:21:05;;;;;;;0.50;0.50;;;8.70;99.90;;;;;;4784981;29;20033;-78
2024/04/25 12:23:33;;;;;;;0.60;0.60;;;8.10;99.90;;;;;;4785485;29;20021;-77
2024/04/25 12:26:00;;;;;;;0.40;0.40;;;8.10;99.90;;;;;;4761498;29;20051;-76
2024/04/25 12:28:26;;;;;;;0.52;0.52;;;8.30;99.90;;;;;;4783626;29;20051;-77
2024/04/25 12:30:52;;;;;;;0.80;0.80;;;8.50;99.90;;;;;;4737790;29;20018;-78
2024/04/25 12:33:18;;;;;;;0.40;0.40;;;8.60;99.90;;;;;;4784187;29;20024;-78
2024/04/25 12:35:44;;;;;;;0.47;0.47;;;8.90;99.90;;;;;;4785940;29;20028;-77
2024/04/25 12:38:10;;;;;;;0.45;0.45;;;9.20;99.90;;;;;;4777053;29;20013;-77
2024/04/25 12:40:38;;;;;;;0.50;0.50;;;9.60;99.90;;;;;;4782682;29;20093;-76
2024/04/25 12:43:04;;;;;;;0.50;0.50;;;9.90;99.90;;;;;;4777858;29;20017;-77
2024/04/25 12:45:34;;;;;;;0.60;0.60;;;9.90;99.90;;;;;;4777015;29;20166;-75
2024/04/25 12:48:04;;;;;;;0.65;0.65;;;9.90;99.90;;;;;;4775097;29;20014;-76
2024/04/25 12:50:30;;;;;;;0.85;0.85;;;9.80;99.90;;;;;;4750613;30;20046;-77
2024/04/25 12:52:56;;;;;;;0.50;0.50;;;9.90;99.90;;;;;;4751724;29;20028;-76
2024/04/25 12:55:22;;;;;;;;;;;10.10;99.90;;;;;;4763785;29;20354;-76
2024/04/25 12:57:54;;;;;;;0.50;0.50;;;10.20;99.90;;;;;;4783272;29;19961;-76
2024/04/25 13:00:24;;;;;;;0.32;0.32;;;10.20;99.90;;;;;;4788368;29;20022;-75
2024/04/25 13:02:51;;;;;;;0.38;0.38;;;10.30;99.90;;;;;;4790859;29;20029;-74
2024/04/25 13:05:17;;;;;;;0.40;0.40;;;10.50;99.90;;;;;;4764391;29;20670;-75
2024/04/25 13:07:44;;;;;;;0.40;0.40;;;10.50;99.90;;;;;;4793211;29;20021;-76